Time;durP1;ratioP1;P1;durP2;ratioP2;P2;SDS_P1;SDS_P2;PMS_P1;PMS_P2;Temp;Humidity;BMP_temperature;BMP_pressure;BME280_temperature;BME280_humidity;BME280_pressure;Samples;Min_cycle;Max_cycle;Signal;HPM_P1;HPM_P2
2021/08/28 00:00:33;;;;;;;1.97;1.80;;;14.50;99.90;;;;;;6319544;28;20468;-62
2021/08/28 00:03:37;;;;;;;2.60;2.40;;;14.50;99.90;;;;;;6312669;28;20616;-62
2021/08/28 00:06:40;;;;;;;2.40;1.87;;;14.40;99.90;;;;;;6328558;28;20501;-62
2021/08/28 00:09:44;;;;;;;3.57;2.30;;;14.40;99.90;;;;;;6322709;28;20481;-66
2021/08/28 00:12:49;;;;;;;6.77;4.43;;;14.30;99.90;;;;;;6327820;28;20472;-65
2021/08/28 00:15:52;;;;;;;4.60;3.10;;;14.20;99.90;;;;;;6328014;28;20467;-66
2021/08/28 00:18:56;;;;;;;3.23;2.10;;;14.20;99.90;;;;;;6327380;28;20507;-65
2021/08/28 00:21:59;;;;;;;2.93;2.60;;;14.20;99.90;;;;;;6318258;28;20473;-62
2021/08/28 00:25:02;;;;;;;2.50;2.30;;;14.20;99.90;;;;;;6299115;28;20487;-63
2021/08/28 00:28:06;;;;;;;2.83;2.17;;;14.20;99.90;;;;;;6299164;28;20799;-62
2021/08/28 00:31:10;;;;;;;2.57;1.73;;;14.20;99.90;;;;;;6299247;28;20811;-62
2021/08/28 00:34:13;;;;;;;2.20;1.77;;;14.20;99.90;;;;;;6300084;28;20465;-62
2021/08/28 00:37:16;;;;;;;1.90;1.77;;;14.20;99.90;;;;;;6299982;28;20484;-62
2021/08/28 00:40:19;;;;;;;2.37;1.97;;;14.20;99.90;;;;;;6296158;28;20472;-62
2021/08/28 00:43:24;;;;;;;4.90;1.97;;;14.30;99.90;;;;;;6302329;28;20570;-62
2021/08/28 00:46:27;;;;;;;2.70;1.90;;;14.30;99.90;;;;;;6301676;28;20480;-62
2021/08/28 00:49:31;;;;;;;2.63;1.33;;;14.30;99.90;;;;;;6329896;28;20529;-62
2021/08/28 00:52:35;;;;;;;2.60;1.73;;;14.30;99.90;;;;;;6336281;28;20515;-62
2021/08/28 00:55:40;;;;;;;2.57;2.37;;;14.40;99.90;;;;;;6339845;28;20471;-62
2021/08/28 00:58:44;;;;;;;2.23;2.03;;;14.30;99.90;;;;;;6335609;28;20480;-62
2021/08/28 01:01:49;;;;;;;1.83;1.73;;;14.20;99.90;;;;;;6338816;28;20463;-62
2021/08/28 01:05:10;;;;;;;2.90;1.70;;;14.20;99.90;;;;;;6352001;28;20471;-61
2021/08/28 01:08:20;;;;;;;1.97;1.87;;;14.20;99.90;;;;;;6351996;27;20479;-61
2021/08/28 01:11:29;;;;;;;2.93;2.20;;;14.20;99.90;;;;;;6351818;28;20471;-62
2021/08/28 01:14:35;;;;;;;3.73;1.97;;;14.20;99.90;;;;;;6351905;27;20479;-62
2021/08/28 01:17:41;;;;;;;3.70;2.60;;;14.20;99.90;;;;;;6351441;28;20498;-62
2021/08/28 01:20:57;;;;;;;3.10;2.80;;;14.20;99.90;;;;;;6351723;27;20479;-62
2021/08/28 01:24:03;;;;;;;2.67;2.00;;;14.20;99.90;;;;;;6351494;27;20893;-62
2021/08/28 01:27:23;;;;;;;2.30;1.83;;;14.10;99.90;;;;;;6351491;28;20454;-62
2021/08/28 01:30:28;;;;;;;2.80;2.50;;;14.10;99.90;;;;;;6351238;28;20798;-62
2021/08/28 01:33:31;;;;;;;1.87;1.77;;;14.10;99.90;;;;;;6350865;28;20479;-62
2021/08/28 01:36:35;;;;;;;2.60;2.40;;;14.10;99.90;;;;;;6350991;28;20486;-62
2021/08/28 01:39:39;;;;;;;3.17;2.10;;;14.10;99.90;;;;;;6351219;28;20490;-62
2021/08/28 01:42:45;;;;;;;1.60;1.50;;;14.00;99.90;;;;;;6351521;28;20479;-62
2021/08/28 01:45:50;;;;;;;2.97;2.10;;;14.00;99.90;;;;;;6346826;28;20479;-62
2021/08/28 01:48:53;;;;;;;1.67;1.57;;;14.00;99.90;;;;;;6331058;28;20486;-62
2021/08/28 01:51:56;;;;;;;2.03;1.93;;;13.90;99.90;;;;;;6339050;28;20487;-62
2021/08/28 01:55:00;;;;;;;2.63;2.43;;;13.90;99.90;;;;;;6333551;28;20475;-62
2021/08/28 01:58:05;;;;;;;2.20;2.00;;;13.80;99.90;;;;;;6338222;28;20494;-62
2021/08/28 02:01:10;;;;;;;2.90;1.90;;;13.80;99.90;;;;;;6337144;27;20472;-62
2021/08/28 02:04:13;;;;;;;2.50;2.17;;;13.80;99.90;;;;;;6336860;28;20459;-62
2021/08/28 02:07:21;;;;;;;5.10;2.20;;;13.80;99.90;;;;;;6338676;28;20471;-62
2021/08/28 02:10:32;;;;;;;2.50;1.70;;;13.90;99.90;;;;;;6335082;28;20965;-61
2021/08/28 02:13:41;;;;;;;2.10;1.90;;;13.80;99.90;;;;;;6335890;28;20468;-62
2021/08/28 02:16:46;;;;;;;2.07;1.87;;;13.80;99.90;;;;;;6335172;28;20840;-62
2021/08/28 02:19:50;;;;;;;2.37;1.93;;;13.80;99.90;;;;;;6336604;28;20471;-62
2021/08/28 02:22:56;;;;;;;2.17;1.80;;;13.90;99.90;;;;;;6337947;28;20464;-62
2021/08/28 02:26:03;;;;;;;1.87;1.77;;;13.90;99.90;;;;;;6327165;28;20472;-62
2021/08/28 02:29:14;;;;;;;2.17;1.97;;;13.90;99.90;;;;;;6324657;28;20472;-62
2021/08/28 02:32:18;;;;;;;1.93;1.80;;;13.90;99.90;;;;;;6324656;28;20483;-62
2021/08/28 02:35:22;;;;;;;2.63;2.33;;;13.90;99.90;;;;;;6324410;28;20491;-62
2021/08/28 02:38:27;;;;;;;6.30;2.40;;;13.80;99.90;;;;;;6324529;28;20495;-62
2021/08/28 02:41:31;;;;;;;3.53;3.23;;;13.80;99.90;;;;;;6324422;28;20483;-62
2021/08/28 02:44:38;;;;;;;3.23;2.93;;;13.80;99.90;;;;;;6323781;28;20464;-62
2021/08/28 02:47:44;;;;;;;14.40;2.80;;;13.80;99.90;;;;;;6323987;28;20798;-62
2021/08/28 02:50:49;;;;;;;3.60;2.53;;;13.80;99.90;;;;;;6315094;28;20472;-62
2021/08/28 02:53:53;;;;;;;3.30;3.00;;;13.70;99.90;;;;;;6324843;28;20821;-62
2021/08/28 02:56:58;;;;;;;2.50;2.00;;;13.80;99.90;;;;;;6326344;28;20448;-62
2021/08/28 03:00:01;;;;;;;5.40;2.40;;;13.70;99.90;;;;;;6324987;28;20480;-62
2021/08/28 03:03:07;;;;;;;2.47;2.27;;;13.70;99.90;;;;;;6325702;28;20445;-62
2021/08/28 03:06:11;;;;;;;3.10;2.27;;;13.70;99.90;;;;;;6324939;28;20886;-62
2021/08/28 03:09:17;;;;;;;3.33;2.07;;;13.70;99.90;;;;;;6324391;28;20471;-63
2021/08/28 03:12:20;;;;;;;1.93;1.83;;;13.70;99.90;;;;;;6324023;28;20460;-62
2021/08/28 03:15:23;;;;;;;2.10;1.80;;;13.60;99.90;;;;;;6324446;28;20533;-62
2021/08/28 03:18:30;;;;;;;2.37;1.87;;;13.60;99.90;;;;;;6324047;28;20475;-62
2021/08/28 03:21:34;;;;;;;2.07;1.80;;;13.50;99.90;;;;;;6324373;28;20484;-62
2021/08/28 03:24:40;;;;;;;2.23;2.03;;;13.50;99.90;;;;;;6324167;28;20472;-62
2021/08/28 03:27:43;;;;;;;4.53;1.60;;;13.60;99.90;;;;;;6324150;28;20472;-62
2021/08/28 03:30:49;;;;;;;2.10;1.90;;;13.50;99.90;;;;;;6323783;28;20981;-62
2021/08/28 03:33:55;;;;;;;4.33;2.43;;;13.40;99.90;;;;;;6323339;28;20473;-62
2021/08/28 03:36:59;;;;;;;2.07;1.87;;;13.40;99.90;;;;;;6323626;28;20961;-63
2021/08/28 03:40:02;;;;;;;4.00;2.67;;;13.40;99.90;;;;;;6323653;28;20925;-63
2021/08/28 03:43:05;;;;;;;2.90;2.30;;;13.50;99.90;;;;;;6324176;28;20464;-63
2021/08/28 03:46:09;;;;;;;2.97;2.20;;;13.50;99.90;;;;;;6323425;28;20476;-63
2021/08/28 03:49:14;;;;;;;3.60;2.47;;;13.50;99.90;;;;;;6323547;28;20836;-63
2021/08/28 03:52:17;;;;;;;3.20;1.90;;;13.50;99.90;;;;;;6319012;28;20480;-63
2021/08/28 03:55:21;;;;;;;5.70;2.40;;;13.50;99.90;;;;;;6323711;28;20472;-63
2021/08/28 03:58:24;;;;;;;3.43;2.00;;;13.50;99.90;;;;;;6328042;28;20809;-63
2021/08/28 04:01:27;;;;;;;2.47;2.27;;;13.40;99.90;;;;;;6327875;28;20542;-63
2021/08/28 04:04:32;;;;;;;2.50;2.30;;;13.40;99.90;;;;;;6327838;28;20532;-63
2021/08/28 04:07:38;;;;;;;3.97;2.30;;;13.40;99.90;;;;;;6328374;28;20472;-63
2021/08/28 04:10:41;;;;;;;3.67;2.03;;;13.50;99.90;;;;;;6328245;28;20973;-63
2021/08/28 04:13:44;;;;;;;6.50;2.80;;;13.50;99.90;;;;;;6328218;28;20491;-63
2021/08/28 04:16:48;;;;;;;2.70;2.50;;;13.40;99.90;;;;;;6327912;28;20479;-63
2021/08/28 04:19:52;;;;;;;5.40;2.00;;;13.40;99.90;;;;;;6327802;28;20479;-63
2021/08/28 04:22:55;;;;;;;2.40;2.20;;;13.40;99.90;;;;;;6327874;28;20469;-63
2021/08/28 04:25:59;;;;;;;2.30;2.07;;;13.40;99.90;;;;;;6327710;28;20509;-62
2021/08/28 04:29:02;;;;;;;2.07;1.97;;;13.50;99.90;;;;;;6327582;28;20826;-59
2021/08/28 04:32:05;;;;;;;2.50;1.80;;;13.40;99.90;;;;;;6327248;28;20811;-59
2021/08/28 04:35:11;;;;;;;2.40;2.20;;;13.40;99.90;;;;;;6327445;28;20476;-59
2021/08/28 04:38:14;;;;;;;2.27;2.07;;;13.50;99.90;;;;;;6327091;28;20472;-59
2021/08/28 04:41:19;;;;;;;2.60;1.90;;;13.50;99.90;;;;;;6327444;28;20464;-59
2021/08/28 04:44:22;;;;;;;3.30;1.87;;;13.60;99.90;;;;;;6326972;28;20807;-59
2021/08/28 04:47:25;;;;;;;3.37;2.10;;;13.60;99.90;;;;;;6327391;28;20812;-59
2021/08/28 04:50:30;;;;;;;3.70;2.50;;;13.60;99.90;;;;;;6326973;28;20465;-60
2021/08/28 04:53:33;;;;;;;2.70;2.10;;;13.70;99.90;;;;;;6326952;28;20992;-59
2021/08/28 04:56:36;;;;;;;1.90;1.80;;;13.80;99.90;;;;;;6326741;28;21019;-59
2021/08/28 04:59:39;;;;;;;4.73;2.33;;;13.70;99.90;;;;;;6312538;28;20495;-59
2021/08/28 05:02:43;;;;;;;5.00;2.17;;;13.70;99.90;;;;;;6326766;28;20483;-59
2021/08/28 05:05:48;;;;;;;2.40;1.67;;;13.80;99.90;;;;;;6326515;28;20465;-59
2021/08/28 05:08:51;;;;;;;2.07;1.97;;;13.80;99.90;;;;;;6325803;28;20491;-59
2021/08/28 05:11:54;;;;;;;2.60;2.03;;;13.80;99.90;;;;;;6326277;28;20439;-59
2021/08/28 05:14:57;;;;;;;2.50;2.17;;;13.90;99.90;;;;;;6326850;28;20472;-59
2021/08/28 05:18:00;;;;;;;2.20;2.10;;;13.90;99.90;;;;;;6326421;28;20525;-59
2021/08/28 05:21:05;;;;;;;1.63;1.53;;;13.90;99.90;;;;;;6326735;28;20452;-59
2021/08/28 05:24:08;;;;;;;2.67;2.47;;;14.00;99.90;;;;;;6325896;28;20783;-59
2021/08/28 05:27:11;;;;;;;2.33;2.13;;;14.10;99.90;;;;;;6326592;28;20456;-59
2021/08/28 05:30:14;;;;;;;1.80;1.57;;;14.20;99.90;;;;;;6325882;28;20957;-59
2021/08/28 05:33:17;;;;;;;3.27;2.67;;;14.30;99.90;;;;;;6326554;28;20473;-59
2021/08/28 05:36:22;;;;;;;2.57;2.03;;;14.30;99.90;;;;;;6325683;28;20533;-59
2021/08/28 05:39:25;;;;;;;3.10;2.17;;;14.30;99.90;;;;;;6325738;28;20961;-59
2021/08/28 05:42:28;;;;;;;2.43;2.23;;;14.40;99.90;;;;;;6326159;28;20471;-59
2021/08/28 05:45:31;;;;;;;2.30;2.10;;;14.50;99.90;;;;;;6325435;28;20973;-59
2021/08/28 05:48:34;;;;;;;2.23;1.77;;;14.50;99.90;;;;;;6325621;28;20472;-59
2021/08/28 05:51:39;;;;;;;3.23;2.40;;;14.70;99.90;;;;;;6325623;28;20468;-59
2021/08/28 05:54:42;;;;;;;3.87;2.00;;;14.80;99.90;;;;;;6325713;28;20476;-59
2021/08/28 05:57:45;;;;;;;2.00;1.80;;;14.90;99.90;;;;;;6325119;28;20976;-59
2021/08/28 06:00:48;;;;;;;2.60;1.83;;;15.00;99.90;;;;;;6339953;28;20479;-59
2021/08/28 06:03:52;;;;;;;2.00;1.80;;;15.10;99.90;;;;;;6350495;28;20479;-60
2021/08/28 06:06:56;;;;;;;3.80;1.80;;;15.10;99.90;;;;;;6350717;28;20467;-59
2021/08/28 06:09:59;;;;;;;5.00;2.37;;;15.20;99.90;;;;;;6350411;28;20463;-59
2021/08/28 06:13:03;;;;;;;2.50;2.13;;;15.30;99.90;;;;;;6350603;28;20463;-59
2021/08/28 06:16:06;;;;;;;5.20;2.63;;;15.40;99.90;;;;;;6350284;28;20479;-59
2021/08/28 06:19:09;;;;;;;1.93;1.70;;;15.60;99.90;;;;;;6349444;28;20475;-59
2021/08/28 06:22:14;;;;;;;2.73;2.00;;;15.70;99.90;;;;;;6349913;28;20828;-59
2021/08/28 06:25:17;;;;;;;2.53;2.10;;;16.10;99.80;;;;;;6350219;28;20464;-59
2021/08/28 06:28:20;;;;;;;2.60;2.07;;;16.40;98.80;;;;;;6350048;28;20983;-59
2021/08/28 06:31:23;;;;;;;5.70;2.00;;;16.60;98.60;;;;;;6349898;28;20464;-59
2021/08/28 06:34:26;;;;;;;4.63;2.17;;;16.80;98.20;;;;;;6349770;27;20475;-60
2021/08/28 06:37:31;;;;;;;3.47;1.90;;;17.00;97.60;;;;;;6349380;28;20478;-60
2021/08/28 06:40:34;;;;;;;3.90;1.90;;;17.30;96.90;;;;;;6349880;28;20471;-59
2021/08/28 06:43:37;;;;;;;6.57;2.40;;;17.30;96.00;;;;;;6349473;28;21026;-59
2021/08/28 06:46:40;;;;;;;3.90;2.63;;;17.50;96.40;;;;;;6349735;28;20482;-59
2021/08/28 06:49:44;;;;;;;2.43;1.70;;;17.80;95.90;;;;;;6349374;28;20471;-59
2021/08/28 06:52:48;;;;;;;2.83;1.90;;;18.10;95.00;;;;;;6349611;28;20483;-59
2021/08/28 06:55:51;;;;;;;2.90;2.10;;;18.20;94.40;;;;;;6349247;28;20471;-59
2021/08/28 06:58:54;;;;;;;2.30;1.80;;;18.30;94.30;;;;;;6349262;28;20976;-59
2021/08/28 07:01:58;;;;;;;4.50;2.20;;;18.30;94.10;;;;;;6349529;28;20478;-59
2021/08/28 07:05:01;;;;;;;3.90;2.17;;;18.40;93.80;;;;;;6345028;28;20811;-59
2021/08/28 07:08:06;;;;;;;2.73;2.17;;;18.60;92.90;;;;;;6349265;28;20969;-58
2021/08/28 07:11:09;;;;;;;2.20;2.00;;;18.80;92.20;;;;;;6349358;28;20994;-58
2021/08/28 07:14:12;;;;;;;4.43;2.10;;;18.90;92.30;;;;;;6349507;28;20464;-58
2021/08/28 07:17:15;;;;;;;4.13;2.30;;;19.30;92.10;;;;;;6348989;28;20230;-59
2021/08/28 07:20:18;;;;;;;4.13;2.23;;;20.00;91.40;;;;;;6349300;28;20683;-59
2021/08/28 07:23:23;;;;;;;4.03;1.93;;;20.60;90.10;;;;;;6349035;28;20225;-59
2021/08/28 07:26:29;;;;;;;4.23;2.10;;;20.90;87.00;;;;;;6349166;28;20785;-59
2021/08/28 07:29:32;;;;;;;2.83;2.10;;;20.90;86.10;;;;;;6348771;28;20713;-59
2021/08/28 07:32:35;;;;;;;3.47;2.60;;;20.80;85.10;;;;;;6352844;28;20236;-59
2021/08/28 07:35:38;;;;;;;3.87;2.30;;;20.40;85.20;;;;;;6353961;28;20225;-59
2021/08/28 07:38:43;;;;;;;2.20;1.97;;;19.90;87.20;;;;;;6354002;28;20229;-59
2021/08/28 07:41:46;;;;;;;2.40;2.03;;;19.70;85.80;;;;;;6353899;28;20582;-59
2021/08/28 07:44:49;;;;;;;6.60;2.40;;;19.60;86.80;;;;;;6353799;28;20233;-59
2021/08/28 07:47:53;;;;;;;2.07;1.87;;;19.60;87.40;;;;;;6354037;28;20221;-62
2021/08/28 07:50:56;;;;;;;6.27;2.33;;;19.30;87.70;;;;;;6353629;28;20514;-59
2021/08/28 07:54:01;;;;;;;3.00;2.10;;;19.20;88.10;;;;;;6353549;28;20543;-59
2021/08/28 07:57:04;;;;;;;3.53;2.10;;;19.20;88.40;;;;;;6353704;28;20237;-60
2021/08/28 08:00:09;;;;;;;5.17;2.07;;;19.40;88.00;;;;;;6353707;27;20253;-59
2021/08/28 08:03:12;;;;;;;4.23;2.67;;;20.50;87.10;;;;;;6353490;28;20243;-60
2021/08/28 08:06:16;;;;;;;4.57;2.40;;;21.20;84.80;;;;;;6353904;28;20236;-60
2021/08/28 08:09:20;;;;;;;7.50;3.10;;;21.70;83.50;;;;;;6343818;28;20237;-60
2021/08/28 08:12:24;;;;;;;4.43;2.67;;;23.40;78.10;;;;;;6353466;28;20222;-65
2021/08/28 08:15:27;;;;;;;3.57;2.50;;;24.60;73.20;;;;;;6353142;28;20240;-65
2021/08/28 08:18:30;;;;;;;5.53;2.50;;;26.80;66.70;;;;;;6352971;28;20229;-64
2021/08/28 08:21:34;;;;;;;5.73;3.23;;;29.40;58.30;;;;;;6352909;28;20235;-65
2021/08/28 08:24:38;;;;;;;4.23;2.90;;;31.60;51.20;;;;;;6353602;28;20232;-63
2021/08/28 08:27:41;;;;;;;2.40;1.92;;;33.80;44.50;;;;;;6353034;28;20232;-66
2021/08/28 08:30:44;;;;;;;2.47;2.00;;;34.80;40.90;;;;;;6352569;28;20240;-66
2021/08/28 08:33:48;;;;;;;4.97;2.40;;;34.80;40.00;;;;;;6353042;28;20239;-66
2021/08/28 08:36:52;;;;;;;2.85;2.03;;;36.60;36.80;;;;;;6352120;28;20369;-64
2021/08/28 08:39:56;;;;;;;2.75;2.55;;;37.60;34.20;;;;;;6352763;28;20225;-64
2021/08/28 08:43:02;;;;;;;4.07;2.35;;;37.00;33.60;;;;;;6343212;28;20221;-66
2021/08/28 08:46:05;;;;;;;3.38;1.67;;;34.90;35.20;;;;;;6341126;28;20236;-66
2021/08/28 08:49:09;;;;;;;2.55;2.35;;;33.90;35.80;;;;;;6338228;28;20222;-65
2021/08/28 08:52:13;;;;;;;2.92;2.47;;;33.30;36.80;;;;;;6337918;28;20221;-65
2021/08/28 08:55:18;;;;;;;2.38;2.10;;;32.80;37.60;;;;;;6332880;28;20599;-65
2021/08/28 08:58:38;;;;;;;3.05;2.53;;;32.40;38.10;;;;;;6312873;28;20734;-67
2021/08/28 09:01:41;;;;;;;2.78;2.47;;;32.10;38.80;;;;;;6332997;28;20225;-66
2021/08/28 09:04:45;;;;;;;7.23;2.73;;;31.80;38.60;;;;;;6335203;28;20297;-66
2021/08/28 09:07:48;;;;;;;5.30;2.43;;;31.50;39.50;;;;;;6326546;28;20710;-66
2021/08/28 09:10:53;;;;;;;3.97;2.00;;;32.00;39.40;;;;;;6323627;28;20631;-66
2021/08/28 09:14:16;;;;;;;4.22;2.47;;;33.40;38.20;;;;;;6318113;28;20225;-66
2021/08/28 09:17:22;;;;;;;4.15;2.80;;;34.70;36.30;;;;;;6321342;28;20725;-68
2021/08/28 09:20:26;;;;;;;2.03;1.77;;;37.20;33.70;;;;;;6320979;28;20237;-66
2021/08/28 09:23:39;;;;;;;2.15;1.95;;;38.90;31.70;;;;;;6320479;28;20225;-66
2021/08/28 09:26:46;;;;;;;2.33;2.13;;;40.20;29.80;;;;;;6327185;28;20217;-67
2021/08/28 09:29:49;;;;;;;2.70;2.50;;;39.90;28.90;;;;;;6336495;28;20230;-66
2021/08/28 09:32:54;;;;;;;2.70;2.45;;;39.20;29.50;;;;;;6334903;28;20248;-67
2021/08/28 09:36:01;;;;;;;4.45;2.30;;;38.70;29.80;;;;;;6329460;28;20236;-67
2021/08/28 09:39:04;;;;;;;2.28;2.08;;;38.10;30.10;;;;;;6323606;28;20230;-66
2021/08/28 09:42:10;;;;;;;4.60;2.50;;;36.10;31.70;;;;;;6323359;28;20651;-64
2021/08/28 09:45:15;;;;;;;4.40;2.15;;;34.90;33.50;;;;;;6324103;28;20536;-67
2021/08/28 09:48:19;;;;;;;2.97;2.40;;;34.30;33.70;;;;;;6323175;28;20284;-68
2021/08/28 09:51:25;;;;;;;2.95;2.33;;;32.70;35.40;;;;;;6323892;28;20229;-65
2021/08/28 09:54:29;;;;;;;2.92;2.65;;;31.30;38.00;;;;;;6320473;28;20694;-67
2021/08/28 09:57:33;;;;;;;5.57;2.70;;;30.00;39.40;;;;;;6309070;28;20780;-66
2021/08/28 10:00:44;;;;;;;2.50;2.30;;;28.30;42.50;;;;;;6297707;28;20234;-66
2021/08/28 10:03:58;;;;;;;3.60;2.70;;;27.80;43.30;;;;;;6299413;28;20770;-66
2021/08/28 10:07:02;;;;;;;4.90;2.20;;;27.30;45.10;;;;;;6323042;28;20237;-66
2021/08/28 10:10:06;;;;;;;2.53;2.33;;;26.10;46.40;;;;;;6323035;28;20225;-65
2021/08/28 10:13:11;;;;;;;2.77;2.57;;;25.70;47.90;;;;;;6322832;28;20676;-65
2021/08/28 10:16:15;;;;;;;2.17;1.97;;;25.80;48.70;;;;;;6323017;28;20240;-65
2021/08/28 10:19:19;;;;;;;2.20;2.10;;;26.10;49.10;;;;;;6322319;28;20233;-65
2021/08/28 10:22:24;;;;;;;3.10;2.40;;;26.40;49.20;;;;;;6330783;28;20233;-65
2021/08/28 10:25:30;;;;;;;1.90;1.70;;;26.20;48.80;;;;;;6335238;27;20267;-66
2021/08/28 10:28:34;;;;;;;2.43;2.20;;;26.00;49.00;;;;;;6335021;28;20664;-66
2021/08/28 10:31:37;;;;;;;2.30;1.83;;;26.00;48.80;;;;;;6335876;28;20702;-66
2021/08/28 10:34:41;;;;;;;2.33;2.13;;;25.70;49.50;;;;;;6330498;28;20717;-66
2021/08/28 10:37:44;;;;;;;3.50;2.43;;;25.40;49.80;;;;;;6335376;28;20224;-66
2021/08/28 10:40:52;;;;;;;2.93;1.93;;;25.60;49.40;;;;;;6327587;28;20564;-66
2021/08/28 10:43:58;;;;;;;3.13;2.30;;;26.00;49.70;;;;;;6320822;28;20222;-67
2021/08/28 10:47:05;;;;;;;2.50;2.30;;;25.70;50.80;;;;;;6325861;28;20759;-67
2021/08/28 10:50:12;;;;;;;2.83;2.47;;;25.80;51.30;;;;;;6331111;28;20230;-65
2021/08/28 10:53:17;;;;;;;3.00;2.70;;;25.80;51.10;;;;;;6328763;28;20255;-70
2021/08/28 10:56:20;;;;;;;2.53;2.30;;;25.50;52.00;;;;;;6320660;28;20226;-67
2021/08/28 10:59:27;;;;;;;3.17;2.70;;;25.50;52.70;;;;;;6296512;28;20690;-66
2021/08/28 11:02:54;;;;;;;2.87;2.27;;;25.50;52.90;;;;;;6296918;28;20699;-67
2021/08/28 11:06:26;;;;;;;2.33;2.10;;;25.40;53.80;;;;;;6315486;28;20202;-66
2021/08/28 11:10:03;;;;;;;3.10;2.50;;;25.20;54.40;;;;;;6308686;28;20687;-66
2021/08/28 11:13:07;;;;;;;4.73;2.70;;;25.30;53.60;;;;;;6321496;28;20237;-66
2021/08/28 11:16:12;;;;;;;3.13;2.53;;;25.40;53.60;;;;;;6321760;28;20234;-66
2021/08/28 11:19:39;;;;;;;2.90;2.67;;;25.30;53.70;;;;;;6312429;28;20244;-67
2021/08/28 11:22:43;;;;;;;3.93;2.70;;;25.80;52.80;;;;;;6321733;28;20237;-68
2021/08/28 11:25:49;;;;;;;2.50;2.20;;;26.00;52.70;;;;;;6332756;28;20237;-67
2021/08/28 11:28:52;;;;;;;2.40;2.17;;;25.50;53.00;;;;;;6333103;28;20627;-66
2021/08/28 11:32:13;;;;;;;2.87;2.23;;;25.30;53.20;;;;;;6321627;28;20710;-66
2021/08/28 11:35:16;;;;;;;2.77;2.10;;;25.00;54.70;;;;;;6321605;28;20270;-65
2021/08/28 11:38:23;;;;;;;2.23;2.03;;;25.00;54.80;;;;;;6321322;28;20233;-65
2021/08/28 11:41:27;;;;;;;2.50;2.30;;;25.00;54.70;;;;;;6296460;28;20237;-64
2021/08/28 11:44:30;;;;;;;2.10;2.00;;;25.20;54.40;;;;;;6296337;28;20705;-64
2021/08/28 11:47:35;;;;;;;4.50;2.40;;;25.10;53.60;;;;;;6296082;28;20226;-61
2021/08/28 11:50:40;;;;;;;1.70;1.60;;;25.00;53.20;;;;;;6296428;28;20227;-65
2021/08/28 11:53:44;;;;;;;2.20;1.97;;;25.00;53.60;;;;;;6312095;28;20241;-66
2021/08/28 11:56:57;;;;;;;3.27;2.40;;;24.80;54.50;;;;;;6311588;28;20567;-65
2021/08/28 12:00:00;;;;;;;2.90;2.00;;;24.90;54.60;;;;;;6306297;28;20235;-64
2021/08/28 12:03:07;;;;;;;6.03;2.03;;;24.70;56.00;;;;;;6304597;28;20251;-64
2021/08/28 12:06:11;;;;;;;2.57;2.30;;;24.50;55.90;;;;;;6306723;28;20195;-67
2021/08/28 12:09:17;;;;;;;2.93;2.17;;;24.70;56.10;;;;;;6298236;28;20238;-66
2021/08/28 12:12:24;;;;;;;2.43;2.23;;;24.70;56.00;;;;;;6316203;28;20230;-65
2021/08/28 12:15:28;;;;;;;4.50;2.30;;;24.70;55.80;;;;;;6331528;28;20222;-68
2021/08/28 12:18:33;;;;;;;2.57;2.37;;;24.40;56.90;;;;;;6335435;28;20454;-68
2021/08/28 12:21:38;;;;;;;3.30;2.30;;;24.60;57.40;;;;;;6334810;28;20222;-68
2021/08/28 12:24:41;;;;;;;4.27;2.37;;;24.60;56.90;;;;;;6324577;28;20233;-63
2021/08/28 12:27:45;;;;;;;2.20;2.03;;;24.60;56.50;;;;;;6332553;28;20226;-63
2021/08/28 12:30:54;;;;;;;3.20;2.53;;;24.20;57.40;;;;;;6335079;28;20573;-63
2021/08/28 12:34:02;;;;;;;2.70;2.20;;;24.30;58.10;;;;;;6308132;28;20222;-63
2021/08/28 12:37:07;;;;;;;2.40;2.20;;;24.40;57.50;;;;;;6308148;28;20243;-63
2021/08/28 12:40:14;;;;;;;2.40;2.00;;;24.40;57.30;;;;;;6322943;28;20237;-64
2021/08/28 12:43:17;;;;;;;5.10;2.20;;;24.70;57.10;;;;;;6306213;28;20231;-60
2021/08/28 12:46:21;;;;;;;2.47;2.27;;;24.60;57.30;;;;;;6310209;28;20683;-61
2021/08/28 12:49:27;;;;;;;2.80;2.27;;;24.70;57.40;;;;;;6308145;28;20241;-64
2021/08/28 12:52:40;;;;;;;3.63;2.60;;;24.70;57.80;;;;;;6312701;28;20230;-60
2021/08/28 12:55:44;;;;;;;2.47;2.27;;;24.60;58.30;;;;;;6304719;28;20274;-62
2021/08/28 12:58:48;;;;;;;2.50;1.93;;;24.40;57.50;;;;;;6306478;28;20241;-62
2021/08/28 13:01:53;;;;;;;2.50;2.30;;;24.40;58.20;;;;;;6306983;28;20740;-62
2021/08/28 13:04:58;;;;;;;2.87;2.57;;;24.10;58.10;;;;;;6322066;28;20357;-61
2021/08/28 13:08:02;;;;;;;2.93;2.37;;;23.80;59.20;;;;;;6315304;28;20245;-63
2021/08/28 13:11:19;;;;;;;3.00;2.20;;;23.70;60.10;;;;;;6315075;28;20222;-64
2021/08/28 13:14:22;;;;;;;2.50;2.30;;;23.40;60.20;;;;;;6306498;28;20218;-65
2021/08/28 13:17:26;;;;;;;2.53;2.33;;;23.30;60.60;;;;;;6298004;28;20672;-65
2021/08/28 13:20:32;;;;;;;2.27;1.90;;;23.30;61.00;;;;;;6309509;28;20267;-65
2021/08/28 13:23:36;;;;;;;2.30;2.10;;;23.40;60.70;;;;;;6306047;28;20237;-67
2021/08/28 13:26:59;;;;;;;2.60;2.33;;;23.50;60.10;;;;;;6306172;28;20242;-66
2021/08/28 13:30:19;;;;;;;2.53;2.20;;;23.90;59.30;;;;;;6321175;28;20229;-64
2021/08/28 13:33:32;;;;;;;2.37;2.13;;;24.10;59.10;;;;;;6306303;28;20227;-65
2021/08/28 13:36:37;;;;;;;3.87;2.40;;;24.20;58.60;;;;;;6311153;28;20233;-64
2021/08/28 13:39:41;;;;;;;5.70;2.70;;;24.10;59.10;;;;;;6321482;28;20567;-64
2021/08/28 13:42:46;;;;;;;3.87;2.50;;;24.00;59.60;;;;;;6335118;28;20232;-65
2021/08/28 13:45:50;;;;;;;2.57;2.30;;;24.20;59.20;;;;;;6321845;28;20686;-65
2021/08/28 13:48:53;;;;;;;2.47;1.90;;;24.60;58.90;;;;;;6321807;28;20238;-66
2021/08/28 13:51:58;;;;;;;2.70;2.07;;;24.60;58.40;;;;;;6321794;28;20233;-66
2021/08/28 13:55:01;;;;;;;2.60;2.30;;;24.60;58.40;;;;;;6321399;28;20222;-66
2021/08/28 13:58:04;;;;;;;2.73;2.30;;;24.50;57.10;;;;;;6321732;28;20272;-66
2021/08/28 14:01:07;;;;;;;2.67;2.13;;;24.60;58.00;;;;;;6331844;28;20324;-66
2021/08/28 14:04:11;;;;;;;2.77;2.50;;;24.50;57.60;;;;;;6326820;28;20675;-67
2021/08/28 14:07:15;;;;;;;4.23;1.97;;;24.40;58.10;;;;;;6331561;28;20562;-67
2021/08/28 14:10:19;;;;;;;4.80;2.37;;;24.60;57.80;;;;;;6335081;28;20232;-66
2021/08/28 14:13:22;;;;;;;3.10;2.20;;;24.40;58.30;;;;;;6335543;27;20229;-66
2021/08/28 14:16:25;;;;;;;2.40;2.17;;;24.20;56.70;;;;;;6336797;28;20569;-66
2021/08/28 14:19:28;;;;;;;2.37;2.17;;;24.10;57.90;;;;;;6335689;28;20683;-66
2021/08/28 14:22:33;;;;;;;3.30;2.53;;;24.00;58.70;;;;;;6328548;28;20686;-66
2021/08/28 14:25:36;;;;;;;2.40;2.20;;;23.30;59.60;;;;;;6326319;28;20234;-66
2021/08/28 14:28:39;;;;;;;2.93;2.30;;;23.20;59.30;;;;;;6322563;28;20234;-68
2021/08/28 14:31:43;;;;;;;2.40;1.87;;;23.40;59.40;;;;;;6313113;28;20230;-65
2021/08/28 14:34:46;;;;;;;3.17;2.37;;;23.00;61.30;;;;;;6321322;28;20579;-67
2021/08/28 14:37:50;;;;;;;2.17;1.97;;;23.10;60.80;;;;;;6322240;28;20513;-67
2021/08/28 14:40:53;;;;;;;2.00;1.90;;;23.10;59.80;;;;;;6321258;28;20237;-65
2021/08/28 14:43:57;;;;;;;2.43;2.13;;;23.00;60.70;;;;;;6322456;28;20226;-66
2021/08/28 14:47:00;;;;;;;4.43;2.50;;;23.00;59.30;;;;;;6321937;28;20245;-65
2021/08/28 14:50:04;;;;;;;3.13;2.47;;;22.70;59.80;;;;;;6322263;28;20295;-66
2021/08/28 14:53:12;;;;;;;3.10;2.43;;;22.50;60.40;;;;;;6315231;28;20225;-67
2021/08/28 14:56:15;;;;;;;4.57;4.13;;;22.30;62.10;;;;;;6305538;28;20227;-66
2021/08/28 14:59:18;;;;;;;2.70;2.50;;;22.10;64.30;;;;;;6315325;28;20222;-66
2021/08/28 15:02:21;;;;;;;7.70;5.20;;;22.10;65.50;;;;;;6305032;28;20257;-66
2021/08/28 15:05:25;;;;;;;5.23;3.40;;;21.90;67.80;;;;;;6304867;28;20227;-67
2021/08/28 15:08:29;;;;;;;5.53;4.40;;;21.90;69.20;;;;;;6299163;28;20605;-67
2021/08/28 15:11:32;;;;;;;6.97;4.10;;;21.60;70.30;;;;;;6297248;28;20312;-67
2021/08/28 15:14:36;;;;;;;2.50;2.30;;;21.60;71.60;;;;;;6313021;28;20261;-67
2021/08/28 15:17:39;;;;;;;3.00;2.70;;;21.40;72.20;;;;;;6306578;28;20616;-67
2021/08/28 15:20:42;;;;;;;2.87;2.43;;;21.30;74.60;;;;;;6296488;28;20223;-67
2021/08/28 15:23:46;;;;;;;5.23;3.03;;;21.00;76.30;;;;;;6312197;28;20231;-66
2021/08/28 15:26:50;;;;;;;4.10;2.93;;;20.80;78.80;;;;;;6301785;28;20241;-66
2021/08/28 15:29:53;;;;;;;2.83;2.20;;;20.60;81.30;;;;;;6311252;28;20215;-66
2021/08/28 15:32:56;;;;;;;4.20;3.17;;;20.40;84.00;;;;;;6312897;28;20288;-66
2021/08/28 15:36:00;;;;;;;6.77;3.07;;;20.20;87.60;;;;;;6307326;28;20226;-64
2021/08/28 15:39:04;;;;;;;6.17;3.37;;;19.90;90.50;;;;;;6304156;28;20275;-64
2021/08/28 15:42:08;;;;;;;4.23;2.33;;;19.80;92.00;;;;;;6309169;28;20602;-65
2021/08/28 15:45:12;;;;;;;3.70;2.43;;;19.60;92.30;;;;;;6312982;28;20278;-65
2021/08/28 15:48:16;;;;;;;4.33;2.57;;;19.40;93.10;;;;;;6309167;28;20214;-68
2021/08/28 15:51:19;;;;;;;3.03;2.27;;;19.00;94.50;;;;;;6299057;28;20249;-64
2021/08/28 15:54:24;;;;;;;1.90;1.70;;;18.50;96.20;;;;;;6311924;28;20464;-66
2021/08/28 15:57:27;;;;;;;2.43;2.23;;;18.20;97.60;;;;;;6325866;28;20674;-64
2021/08/28 16:00:30;;;;;;;2.40;2.07;;;17.90;97.50;;;;;;6330715;28;20971;-65
2021/08/28 16:03:33;;;;;;;1.67;1.57;;;17.90;98.50;;;;;;6320458;28;20813;-64